sensor_id;sensor_type;location;lat;lon;timestamp;P1;durP1;ratioP1;P2;durP2;ratioP2
3155;SDS011;1588;50.892;7.082;2023-04-10T00:01:01;13.13;;;6.77;;
3155;SDS011;1588;50.892;7.082;2023-04-10T00:06:06;13.83;;;7.10;;
3155;SDS011;1588;50.892;7.082;2023-04-10T00:11:08;15.67;;;7.60;;
3155;SDS011;1588;50.892;7.082;2023-04-10T00:16:11;16.33;;;6.30;;
3155;SDS011;1588;50.892;7.082;2023-04-10T00:21:15;14.83;;;7.40;;
3155;SDS011;1588;50.892;7.082;2023-04-10T00:26:18;12.07;;;6.97;;
3155;SDS011;1588;50.892;7.082;2023-04-10T00:31:20;12.97;;;6.63;;
3155;SDS011;1588;50.892;7.082;2023-04-10T00:36:24;18.97;;;6.93;;
3155;SDS011;1588;50.892;7.082;2023-04-10T00:41:28;16.83;;;7.77;;
3155;SDS011;1588;50.892;7.082;2023-04-10T00:46:30;12.93;;;6.73;;
3155;SDS011;1588;50.892;7.082;2023-04-10T00:51:36;12.77;;;6.80;;
3155;SDS011;1588;50.892;7.082;2023-04-10T00:56:39;16.83;;;7.90;;
3155;SDS011;1588;50.892;7.082;2023-04-10T01:01:44;13.57;;;7.60;;
3155;SDS011;1588;50.892;7.082;2023-04-10T01:06:56;17.80;;;7.83;;
3155;SDS011;1588;50.892;7.082;2023-04-10T01:12:04;20.13;;;8.20;;
3155;SDS011;1588;50.892;7.082;2023-04-10T01:17:15;18.90;;;7.50;;
3155;SDS011;1588;50.892;7.082;2023-04-10T01:22:24;15.00;;;7.57;;
3155;SDS011;1588;50.892;7.082;2023-04-10T01:27:34;15.27;;;7.73;;
3155;SDS011;1588;50.892;7.082;2023-04-10T01:32:49;20.43;;;8.10;;
3155;SDS011;1588;50.892;7.082;2023-04-10T01:38:00;18.80;;;8.83;;
3155;SDS011;1588;50.892;7.082;2023-04-10T01:43:05;15.97;;;8.00;;
3155;SDS011;1588;50.892;7.082;2023-04-10T01:48:12;20.23;;;8.90;;
3155;SDS011;1588;50.892;7.082;2023-04-10T01:53:17;18.17;;;8.37;;
3155;SDS011;1588;50.892;7.082;2023-04-10T01:58:20;20.60;;;8.57;;
3155;SDS011;1588;50.892;7.082;2023-04-10T02:03:23;16.73;;;7.83;;
3155;SDS011;1588;50.892;7.082;2023-04-10T02:08:29;15.10;;;7.80;;
3155;SDS011;1588;50.892;7.082;2023-04-10T02:13:35;12.97;;;6.63;;
3155;SDS011;1588;50.892;7.082;2023-04-10T02:18:42;16.27;;;7.73;;
3155;SDS011;1588;50.892;7.082;2023-04-10T02:23:45;19.33;;;8.67;;
3155;SDS011;1588;50.892;7.082;2023-04-10T02:28:48;17.53;;;8.00;;
3155;SDS011;1588;50.892;7.082;2023-04-10T02:33:52;14.97;;;7.60;;
3155;SDS011;1588;50.892;7.082;2023-04-10T02:38:54;23.00;;;8.67;;
3155;SDS011;1588;50.892;7.082;2023-04-10T02:43:56;12.60;;;6.97;;
3155;SDS011;1588;50.892;7.082;2023-04-10T02:49:00;15.10;;;7.47;;
3155;SDS011;1588;50.892;7.082;2023-04-10T02:54:02;22.60;;;7.93;;
3155;SDS011;1588;50.892;7.082;2023-04-10T02:59:05;17.23;;;7.73;;
3155;SDS011;1588;50.892;7.082;2023-04-10T03:04:09;13.03;;;6.80;;
3155;SDS011;1588;50.892;7.082;2023-04-10T03:09:12;17.60;;;7.23;;
3155;SDS011;1588;50.892;7.082;2023-04-10T03:14:14;16.13;;;7.47;;
3155;SDS011;1588;50.892;7.082;2023-04-10T03:19:19;14.17;;;7.47;;
3155;SDS011;1588;50.892;7.082;2023-04-10T03:24:21;20.70;;;7.13;;
3155;SDS011;1588;50.892;7.082;2023-04-10T03:29:23;14.93;;;6.73;;
3155;SDS011;1588;50.892;7.082;2023-04-10T03:34:27;12.10;;;6.50;;
3155;SDS011;1588;50.892;7.082;2023-04-10T03:39:29;18.40;;;7.40;;
3155;SDS011;1588;50.892;7.082;2023-04-10T03:44:32;15.30;;;6.70;;
3155;SDS011;1588;50.892;7.082;2023-04-10T03:49:36;16.53;;;7.30;;
3155;SDS011;1588;50.892;7.082;2023-04-10T03:54:39;13.50;;;6.20;;
3155;SDS011;1588;50.892;7.082;2023-04-10T03:59:41;19.47;;;7.43;;
3155;SDS011;1588;50.892;7.082;2023-04-10T04:04:45;13.53;;;6.70;;
3155;SDS011;1588;50.892;7.082;2023-04-10T04:09:48;14.90;;;6.93;;
3155;SDS011;1588;50.892;7.082;2023-04-10T04:14:53;15.30;;;7.10;;
3155;SDS011;1588;50.892;7.082;2023-04-10T04:19:57;15.77;;;8.10;;
3155;SDS011;1588;50.892;7.082;2023-04-10T04:24:59;16.37;;;6.93;;
3155;SDS011;1588;50.892;7.082;2023-04-10T04:30:05;15.27;;;6.60;;
3155;SDS011;1588;50.892;7.082;2023-04-10T04:35:09;16.10;;;7.63;;
3155;SDS011;1588;50.892;7.082;2023-04-10T04:40:12;12.40;;;6.20;;
3155;SDS011;1588;50.892;7.082;2023-04-10T04:45:14;13.40;;;7.17;;
3155;SDS011;1588;50.892;7.082;2023-04-10T04:50:18;16.97;;;7.63;;
3155;SDS011;1588;50.892;7.082;2023-04-10T04:55:21;13.07;;;6.43;;
3155;SDS011;1588;50.892;7.082;2023-04-10T05:00:23;13.83;;;7.63;;
3155;SDS011;1588;50.892;7.082;2023-04-10T05:05:26;17.23;;;7.70;;
3155;SDS011;1588;50.892;7.082;2023-04-10T05:10:29;13.37;;;6.80;;
3155;SDS011;1588;50.892;7.082;2023-04-10T05:15:33;12.13;;;6.43;;
3155;SDS011;1588;50.892;7.082;2023-04-10T05:20:37;13.80;;;6.33;;
3155;SDS011;1588;50.892;7.082;2023-04-10T05:25:39;12.63;;;6.23;;
3155;SDS011;1588;50.892;7.082;2023-04-10T05:30:41;13.50;;;6.87;;
3155;SDS011;1588;50.892;7.082;2023-04-10T05:35:46;12.83;;;6.53;;
3155;SDS011;1588;50.892;7.082;2023-04-10T05:40:48;14.53;;;6.83;;
3155;SDS011;1588;50.892;7.082;2023-04-10T05:45:50;15.10;;;7.53;;
3155;SDS011;1588;50.892;7.082;2023-04-10T05:50:54;12.90;;;6.27;;
3155;SDS011;1588;50.892;7.082;2023-04-10T05:55:57;16.80;;;6.47;;
3155;SDS011;1588;50.892;7.082;2023-04-10T06:01:00;14.90;;;6.43;;
3155;SDS011;1588;50.892;7.082;2023-04-10T06:06:05;12.17;;;6.00;;
3155;SDS011;1588;50.892;7.082;2023-04-10T06:11:08;11.10;;;6.03;;
3155;SDS011;1588;50.892;7.082;2023-04-10T06:16:10;14.80;;;7.27;;
3155;SDS011;1588;50.892;7.082;2023-04-10T06:21:15;13.73;;;6.20;;
3155;SDS011;1588;50.892;7.082;2023-04-10T06:26:18;13.93;;;6.67;;
3155;SDS011;1588;50.892;7.082;2023-04-10T06:31:20;12.27;;;6.50;;
3155;SDS011;1588;50.892;7.082;2023-04-10T06:36:27;12.87;;;6.97;;
3155;SDS011;1588;50.892;7.082;2023-04-10T06:41:29;13.90;;;5.90;;
3155;SDS011;1588;50.892;7.082;2023-04-10T06:46:32;12.87;;;6.40;;
3155;SDS011;1588;50.892;7.082;2023-04-10T06:51:36;14.03;;;6.30;;
3155;SDS011;1588;50.892;7.082;2023-04-10T06:56:38;12.50;;;6.50;;
3155;SDS011;1588;50.892;7.082;2023-04-10T07:01:40;9.17;;;6.10;;
3155;SDS011;1588;50.892;7.082;2023-04-10T07:06:44;10.87;;;6.40;;
3155;SDS011;1588;50.892;7.082;2023-04-10T07:11:46;12.47;;;6.57;;
3155;SDS011;1588;50.892;7.082;2023-04-10T07:16:49;12.30;;;6.13;;
3155;SDS011;1588;50.892;7.082;2023-04-10T07:21:55;15.77;;;6.30;;
3155;SDS011;1588;50.892;7.082;2023-04-10T07:26:57;12.90;;;6.60;;
3155;SDS011;1588;50.892;7.082;2023-04-10T07:32:01;9.80;;;5.70;;
3155;SDS011;1588;50.892;7.082;2023-04-10T07:37:04;14.07;;;6.07;;
3155;SDS011;1588;50.892;7.082;2023-04-10T07:42:07;11.53;;;6.17;;
3155;SDS011;1588;50.892;7.082;2023-04-10T07:47:10;12.57;;;6.77;;
3155;SDS011;1588;50.892;7.082;2023-04-10T07:52:14;10.50;;;6.10;;
3155;SDS011;1588;50.892;7.082;2023-04-10T07:57:22;13.70;;;6.93;;
3155;SDS011;1588;50.892;7.082;2023-04-10T08:02:25;8.83;;;5.27;;
3155;SDS011;1588;50.892;7.082;2023-04-10T08:07:29;7.90;;;5.60;;
3155;SDS011;1588;50.892;7.082;2023-04-10T08:12:32;7.77;;;5.33;;
3155;SDS011;1588;50.892;7.082;2023-04-10T08:17:34;8.73;;;5.20;;
3155;SDS011;1588;50.892;7.082;2023-04-10T08:22:38;8.90;;;5.30;;
3155;SDS011;1588;50.892;7.082;2023-04-10T08:27:41;11.63;;;4.90;;
3155;SDS011;1588;50.892;7.082;2023-04-10T08:32:46;7.03;;;4.20;;
3155;SDS011;1588;50.892;7.082;2023-04-10T08:37:50;9.83;;;4.70;;
3155;SDS011;1588;50.892;7.082;2023-04-10T08:42:52;18.27;;;4.60;;
3155;SDS011;1588;50.892;7.082;2023-04-10T08:48:01;11.87;;;4.93;;
3155;SDS011;1588;50.892;7.082;2023-04-10T08:53:14;6.80;;;4.10;;
3155;SDS011;1588;50.892;7.082;2023-04-10T09:03:26;9.80;;;4.40;;
3155;SDS011;1588;50.892;7.082;2023-04-10T09:08:34;6.67;;;4.30;;
3155;SDS011;1588;50.892;7.082;2023-04-10T09:13:40;5.13;;;3.70;;
3155;SDS011;1588;50.892;7.082;2023-04-10T09:18:44;9.47;;;3.57;;
3155;SDS011;1588;50.892;7.082;2023-04-10T09:23:58;7.70;;;3.73;;
3155;SDS011;1588;50.892;7.082;2023-04-10T09:29:03;5.43;;;3.40;;
3155;SDS011;1588;50.892;7.082;2023-04-10T09:34:10;6.17;;;3.80;;
3155;SDS011;1588;50.892;7.082;2023-04-10T09:39:16;5.27;;;3.57;;
3155;SDS011;1588;50.892;7.082;2023-04-10T09:44:26;6.07;;;3.40;;
3155;SDS011;1588;50.892;7.082;2023-04-10T09:49:34;6.80;;;3.57;;
3155;SDS011;1588;50.892;7.082;2023-04-10T09:54:47;6.00;;;3.40;;
3155;SDS011;1588;50.892;7.082;2023-04-10T09:59:50;4.40;;;3.43;;
3155;SDS011;1588;50.892;7.082;2023-04-10T10:04:53;6.83;;;3.57;;
3155;SDS011;1588;50.892;7.082;2023-04-10T10:09:58;5.80;;;3.60;;
3155;SDS011;1588;50.892;7.082;2023-04-10T10:15:04;4.83;;;3.40;;
3155;SDS011;1588;50.892;7.082;2023-04-10T10:20:10;5.50;;;3.67;;
3155;SDS011;1588;50.892;7.082;2023-04-10T10:25:19;6.70;;;3.23;;
3155;SDS011;1588;50.892;7.082;2023-04-10T10:30:23;4.53;;;3.03;;
3155;SDS011;1588;50.892;7.082;2023-04-10T10:35:26;4.73;;;3.13;;
3155;SDS011;1588;50.892;7.082;2023-04-10T10:40:37;5.20;;;3.43;;
3155;SDS011;1588;50.892;7.082;2023-04-10T10:45:53;6.70;;;3.50;;
3155;SDS011;1588;50.892;7.082;2023-04-10T10:50:59;3.90;;;2.97;;
3155;SDS011;1588;50.892;7.082;2023-04-10T11:01:35;3.30;;;2.83;;
3155;SDS011;1588;50.892;7.082;2023-04-10T11:07:02;4.60;;;3.20;;
3155;SDS011;1588;50.892;7.082;2023-04-10T11:12:05;3.90;;;2.93;;
3155;SDS011;1588;50.892;7.082;2023-04-10T11:17:08;5.40;;;3.10;;
3155;SDS011;1588;50.892;7.082;2023-04-10T11:22:12;4.67;;;3.10;;
3155;SDS011;1588;50.892;7.082;2023-04-10T11:32:39;4.37;;;2.97;;
3155;SDS011;1588;50.892;7.082;2023-04-10T11:37:43;3.80;;;2.97;;
3155;SDS011;1588;50.892;7.082;2023-04-10T11:42:46;3.63;;;2.60;;
3155;SDS011;1588;50.892;7.082;2023-04-10T11:47:49;4.07;;;2.63;;
3155;SDS011;1588;50.892;7.082;2023-04-10T11:52:54;3.70;;;2.57;;
3155;SDS011;1588;50.892;7.082;2023-04-10T11:57:56;4.33;;;2.80;;
3155;SDS011;1588;50.892;7.082;2023-04-10T12:02:58;3.30;;;2.43;;
3155;SDS011;1588;50.892;7.082;2023-04-10T12:08:02;3.40;;;2.57;;
3155;SDS011;1588;50.892;7.082;2023-04-10T12:13:13;3.87;;;2.70;;
3155;SDS011;1588;50.892;7.082;2023-04-10T12:18:26;4.00;;;3.30;;
3155;SDS011;1588;50.892;7.082;2023-04-10T12:23:30;3.40;;;2.47;;
3155;SDS011;1588;50.892;7.082;2023-04-10T12:28:33;2.37;;;2.17;;
3155;SDS011;1588;50.892;7.082;2023-04-10T12:33:36;2.97;;;2.03;;
3155;SDS011;1588;50.892;7.082;2023-04-10T12:38:42;4.00;;;2.70;;
3155;SDS011;1588;50.892;7.082;2023-04-10T12:43:44;2.47;;;2.07;;
3155;SDS011;1588;50.892;7.082;2023-04-10T12:48:47;2.90;;;2.23;;
3155;SDS011;1588;50.892;7.082;2023-04-10T12:53:50;3.40;;;2.60;;
3155;SDS011;1588;50.892;7.082;2023-04-10T12:59:04;3.07;;;2.07;;
3155;SDS011;1588;50.892;7.082;2023-04-10T13:04:07;3.10;;;2.20;;
3155;SDS011;1588;50.892;7.082;2023-04-10T13:09:11;5.13;;;2.40;;
3155;SDS011;1588;50.892;7.082;2023-04-10T13:14:14;3.73;;;2.60;;
3155;SDS011;1588;50.892;7.082;2023-04-10T13:19:16;3.50;;;2.33;;
3155;SDS011;1588;50.892;7.082;2023-04-10T13:24:20;2.60;;;2.00;;
3155;SDS011;1588;50.892;7.082;2023-04-10T13:29:22;3.33;;;2.50;;
3155;SDS011;1588;50.892;7.082;2023-04-10T13:34:25;3.13;;;2.33;;
3155;SDS011;1588;50.892;7.082;2023-04-10T13:39:29;3.47;;;2.53;;
3155;SDS011;1588;50.892;7.082;2023-04-10T13:44:32;5.43;;;2.70;;
3155;SDS011;1588;50.892;7.082;2023-04-10T13:49:34;3.50;;;2.67;;
3155;SDS011;1588;50.892;7.082;2023-04-10T13:54:38;3.30;;;2.30;;
3155;SDS011;1588;50.892;7.082;2023-04-10T13:59:40;2.50;;;2.30;;
3155;SDS011;1588;50.892;7.082;2023-04-10T14:04:42;3.60;;;2.63;;
3155;SDS011;1588;50.892;7.082;2023-04-10T14:09:47;3.10;;;2.43;;
3155;SDS011;1588;50.892;7.082;2023-04-10T14:14:49;4.87;;;2.90;;
3155;SDS011;1588;50.892;7.082;2023-04-10T14:19:52;3.57;;;2.57;;
3155;SDS011;1588;50.892;7.082;2023-04-10T14:24:57;2.27;;;1.90;;
3155;SDS011;1588;50.892;7.082;2023-04-10T14:30:03;3.07;;;2.60;;
3155;SDS011;1588;50.892;7.082;2023-04-10T14:35:06;3.40;;;2.33;;
3155;SDS011;1588;50.892;7.082;2023-04-10T14:40:19;3.30;;;2.20;;
3155;SDS011;1588;50.892;7.082;2023-04-10T14:45:21;3.37;;;2.37;;
3155;SDS011;1588;50.892;7.082;2023-04-10T14:50:27;5.13;;;2.40;;
3155;SDS011;1588;50.892;7.082;2023-04-10T14:55:36;4.23;;;2.43;;
3155;SDS011;1588;50.892;7.082;2023-04-10T15:00:38;6.07;;;2.67;;
3155;SDS011;1588;50.892;7.082;2023-04-10T15:05:57;3.70;;;2.10;;
3155;SDS011;1588;50.892;7.082;2023-04-10T15:11:04;2.17;;;1.97;;
3155;SDS011;1588;50.892;7.082;2023-04-10T15:16:07;2.47;;;1.97;;
3155;SDS011;1588;50.892;7.082;2023-04-10T15:21:21;3.00;;;2.20;;
3155;SDS011;1588;50.892;7.082;2023-04-10T15:26:26;2.07;;;1.93;;
3155;SDS011;1588;50.892;7.082;2023-04-10T15:31:31;4.37;;;2.10;;
3155;SDS011;1588;50.892;7.082;2023-04-10T15:36:33;3.57;;;2.43;;
3155;SDS011;1588;50.892;7.082;2023-04-10T15:41:46;112.43;;;5.03;;
3155;SDS011;1588;50.892;7.082;2023-04-10T15:46:50;3.70;;;2.13;;
3155;SDS011;1588;50.892;7.082;2023-04-10T15:51:52;2.73;;;2.30;;
3155;SDS011;1588;50.892;7.082;2023-04-10T15:56:56;9.30;;;2.53;;
3155;SDS011;1588;50.892;7.082;2023-04-10T16:01:58;9.37;;;3.20;;
3155;SDS011;1588;50.892;7.082;2023-04-10T16:07:00;6.03;;;3.00;;
3155;SDS011;1588;50.892;7.082;2023-04-10T16:12:05;5.20;;;2.60;;
3155;SDS011;1588;50.892;7.082;2023-04-10T16:17:08;2.87;;;2.57;;
3155;SDS011;1588;50.892;7.082;2023-04-10T16:22:10;8.87;;;2.70;;
3155;SDS011;1588;50.892;7.082;2023-04-10T16:27:16;3.53;;;2.63;;
3155;SDS011;1588;50.892;7.082;2023-04-10T16:32:18;46.13;;;3.80;;
3155;SDS011;1588;50.892;7.082;2023-04-10T16:37:22;3.13;;;2.37;;
3155;SDS011;1588;50.892;7.082;2023-04-10T16:48:23;3.30;;;2.40;;
3155;SDS011;1588;50.892;7.082;2023-04-10T16:53:27;3.47;;;2.90;;
3155;SDS011;1588;50.892;7.082;2023-04-10T16:58:30;5.30;;;3.30;;
3155;SDS011;1588;50.892;7.082;2023-04-10T17:03:33;3.47;;;2.80;;
3155;SDS011;1588;50.892;7.082;2023-04-10T17:08:37;4.13;;;2.37;;
3155;SDS011;1588;50.892;7.082;2023-04-10T17:13:40;4.93;;;2.97;;
3155;SDS011;1588;50.892;7.082;2023-04-10T17:18:46;3.67;;;2.50;;
3155;SDS011;1588;50.892;7.082;2023-04-10T17:23:49;3.20;;;2.30;;
3155;SDS011;1588;50.892;7.082;2023-04-10T17:28:54;3.90;;;2.60;;
3155;SDS011;1588;50.892;7.082;2023-04-10T17:33:58;2.77;;;2.53;;
3155;SDS011;1588;50.892;7.082;2023-04-10T17:39:06;3.17;;;2.50;;
3155;SDS011;1588;50.892;7.082;2023-04-10T17:44:10;4.17;;;2.63;;
3155;SDS011;1588;50.892;7.082;2023-04-10T17:49:21;3.90;;;2.60;;
3155;SDS011;1588;50.892;7.082;2023-04-10T17:54:23;4.53;;;2.77;;
3155;SDS011;1588;50.892;7.082;2023-04-10T17:59:28;5.53;;;2.63;;
3155;SDS011;1588;50.892;7.082;2023-04-10T18:04:32;5.53;;;2.70;;
3155;SDS011;1588;50.892;7.082;2023-04-10T18:09:34;7.77;;;3.80;;
3155;SDS011;1588;50.892;7.082;2023-04-10T18:14:37;6.63;;;4.20;;
3155;SDS011;1588;50.892;7.082;2023-04-10T18:19:40;3.57;;;2.67;;
3155;SDS011;1588;50.892;7.082;2023-04-10T18:24:44;3.83;;;2.77;;
3155;SDS011;1588;50.892;7.082;2023-04-10T18:29:46;3.40;;;2.50;;
3155;SDS011;1588;50.892;7.082;2023-04-10T18:34:50;3.03;;;2.33;;
3155;SDS011;1588;50.892;7.082;2023-04-10T18:39:52;3.20;;;2.53;;
3155;SDS011;1588;50.892;7.082;2023-04-10T18:44:55;3.90;;;2.90;;
3155;SDS011;1588;50.892;7.082;2023-04-10T18:49:58;3.57;;;2.40;;
3155;SDS011;1588;50.892;7.082;2023-04-10T18:55:00;3.07;;;2.13;;
3155;SDS011;1588;50.892;7.082;2023-04-10T19:00:03;4.30;;;2.83;;
3155;SDS011;1588;50.892;7.082;2023-04-10T19:05:09;5.00;;;2.90;;
3155;SDS011;1588;50.892;7.082;2023-04-10T19:10:16;4.93;;;3.07;;
3155;SDS011;1588;50.892;7.082;2023-04-10T19:15:18;5.23;;;3.13;;
3155;SDS011;1588;50.892;7.082;2023-04-10T19:20:22;4.43;;;2.77;;
3155;SDS011;1588;50.892;7.082;2023-04-10T19:25:24;5.80;;;3.27;;
3155;SDS011;1588;50.892;7.082;2023-04-10T19:30:26;4.60;;;2.80;;
3155;SDS011;1588;50.892;7.082;2023-04-10T19:35:30;2.80;;;2.50;;
3155;SDS011;1588;50.892;7.082;2023-04-10T19:40:32;7.67;;;3.87;;
3155;SDS011;1588;50.892;7.082;2023-04-10T19:45:34;9.60;;;3.30;;
3155;SDS011;1588;50.892;7.082;2023-04-10T19:50:38;7.50;;;3.13;;
3155;SDS011;1588;50.892;7.082;2023-04-10T19:55:40;5.07;;;2.87;;
3155;SDS011;1588;50.892;7.082;2023-04-10T20:00:44;6.70;;;3.73;;
3155;SDS011;1588;50.892;7.082;2023-04-10T20:05:48;4.50;;;3.00;;
3155;SDS011;1588;50.892;7.082;2023-04-10T20:10:50;5.33;;;3.50;;
3155;SDS011;1588;50.892;7.082;2023-04-10T20:15:52;8.23;;;3.27;;
3155;SDS011;1588;50.892;7.082;2023-04-10T20:20:57;4.43;;;2.80;;
3155;SDS011;1588;50.892;7.082;2023-04-10T20:25:59;8.73;;;3.60;;
3155;SDS011;1588;50.892;7.082;2023-04-10T20:31:01;6.70;;;3.77;;
3155;SDS011;1588;50.892;7.082;2023-04-10T20:36:08;4.50;;;3.40;;
3155;SDS011;1588;50.892;7.082;2023-04-10T20:41:11;6.10;;;3.97;;
3155;SDS011;1588;50.892;7.082;2023-04-10T20:46:14;5.97;;;3.30;;
3155;SDS011;1588;50.892;7.082;2023-04-10T20:51:19;6.70;;;3.10;;
3155;SDS011;1588;50.892;7.082;2023-04-10T20:56:22;3.93;;;2.10;;
3155;SDS011;1588;50.892;7.082;2023-04-10T21:01:24;5.00;;;1.97;;
3155;SDS011;1588;50.892;7.082;2023-04-10T21:06:28;4.23;;;1.70;;
3155;SDS011;1588;50.892;7.082;2023-04-10T21:11:32;4.33;;;2.00;;
3155;SDS011;1588;50.892;7.082;2023-04-10T21:16:35;5.47;;;2.30;;
3155;SDS011;1588;50.892;7.082;2023-04-10T21:21:43;4.07;;;2.20;;
3155;SDS011;1588;50.892;7.082;2023-04-10T21:26:45;4.07;;;2.20;;
3155;SDS011;1588;50.892;7.082;2023-04-10T21:31:47;3.50;;;2.17;;
3155;SDS011;1588;50.892;7.082;2023-04-10T21:36:51;4.97;;;2.50;;
3155;SDS011;1588;50.892;7.082;2023-04-10T21:41:54;3.27;;;2.10;;
3155;SDS011;1588;50.892;7.082;2023-04-10T21:46:58;3.50;;;2.70;;
3155;SDS011;1588;50.892;7.082;2023-04-10T21:52:02;5.53;;;2.17;;
3155;SDS011;1588;50.892;7.082;2023-04-10T21:57:06;4.60;;;2.57;;
3155;SDS011;1588;50.892;7.082;2023-04-10T22:02:08;5.10;;;2.17;;
3155;SDS011;1588;50.892;7.082;2023-04-10T22:07:13;3.10;;;2.03;;
3155;SDS011;1588;50.892;7.082;2023-04-10T22:12:15;21.23;;;3.73;;
3155;SDS011;1588;50.892;7.082;2023-04-10T22:17:17;2.93;;;2.13;;
3155;SDS011;1588;50.892;7.082;2023-04-10T22:22:21;3.20;;;1.90;;
3155;SDS011;1588;50.892;7.082;2023-04-10T22:27:23;2.60;;;1.73;;
3155;SDS011;1588;50.892;7.082;2023-04-10T22:32:26;5.70;;;2.00;;
3155;SDS011;1588;50.892;7.082;2023-04-10T22:37:29;4.47;;;1.60;;
3155;SDS011;1588;50.892;7.082;2023-04-10T22:42:32;1.97;;;1.50;;
3155;SDS011;1588;50.892;7.082;2023-04-10T22:47:34;2.20;;;1.73;;
3155;SDS011;1588;50.892;7.082;2023-04-10T22:52:38;1.90;;;1.47;;
3155;SDS011;1588;50.892;7.082;2023-04-10T22:57:41;2.47;;;1.30;;
3155;SDS011;1588;50.892;7.082;2023-04-10T23:02:48;2.20;;;1.40;;
3155;SDS011;1588;50.892;7.082;2023-04-10T23:07:51;2.63;;;1.87;;
3155;SDS011;1588;50.892;7.082;2023-04-10T23:12:53;1.53;;;1.43;;
3155;SDS011;1588;50.892;7.082;2023-04-10T23:17:56;2.60;;;1.40;;
3155;SDS011;1588;50.892;7.082;2023-04-10T23:22:59;2.33;;;1.60;;
3155;SDS011;1588;50.892;7.082;2023-04-10T23:28:02;3.97;;;1.60;;
3155;SDS011;1588;50.892;7.082;2023-04-10T23:33:05;1.53;;;1.43;;
3155;SDS011;1588;50.892;7.082;2023-04-10T23:38:09;2.70;;;1.40;;
3155;SDS011;1588;50.892;7.082;2023-04-10T23:43:11;2.03;;;1.50;;
3155;SDS011;1588;50.892;7.082;2023-04-10T23:48:13;3.87;;;1.20;;
3155;SDS011;1588;50.892;7.082;2023-04-10T23:53:17;3.00;;;1.37;;
3155;SDS011;1588;50.892;7.082;2023-04-10T23:58:19;2.50;;;2.07;;
